< < Back
Terminal Aerodrome Forecast


Current Version              Previous Versions:   1  2  3  4  5  6  7  8  9  

Terminal Aerodrome Forecast

846
FTUS42 KFFC 290536
TAFFTY
TAF
KFTY 290536Z 2906/3006 00000KT 3SM BR BKN006
      TEMPO 2906/2909 1/2SM FG OVC004
     FM290900 00000KT 1/2SM FG OVC003
     FM291400 13004KT P6SM BKN025
     FM291700 13005KT P6SM SCT035 PROB30 2919/2922 5SM TSRA BKN025CB
     FM300200 13005KT P6SM FEW040 SCT120=



Latest METAR

142
SAUS70 KWBC 291800 RRL
MTRFTY
METAR KFTY 291753Z VRB05KT 10SM FEW036 28/18 A3021 RMK AO2 SLP221
T02780178 10278 20200 58008


USA.gov is the U.S. government's official web portal to all federal, state and local government web resources and services.